createdAt,value
2022-10-25T03:45:34.887Z,1.88
2022-10-25T04:00:53.711Z,1.84
2022-10-25T04:14:03.230Z,1.75
2022-10-25T04:15:37.214Z,1.80
2022-10-25T04:17:14.993Z,1.78
2022-10-25T04:18:25.876Z,1.74
2022-10-25T04:19:31.688Z,1.77
2022-10-25T04:20:34.103Z,1.78
2022-10-25T04:21:36.575Z,1.81
2022-10-25T04:22:39.335Z,1.82
2022-10-25T04:23:42.589Z,1.83
2022-10-25T04:24:46.587Z,1.83
2022-10-25T04:25:50.370Z,1.85
2022-10-25T04:26:53.052Z,1.83
2022-10-25T04:28:07.205Z,1.84
2022-10-25T04:29:14.484Z,1.86
2022-10-25T04:30:36.490Z,1.84
2022-10-25T04:31:51.756Z,1.89
2022-10-25T04:33:07.783Z,1.95
2022-10-25T04:34:23.886Z,1.95
2022-10-25T04:35:38.823Z,1.96
2022-10-25T04:36:53.075Z,2.01
2022-10-25T04:38:03.114Z,2.03
2022-10-25T04:39:11.153Z,2.05
2022-10-25T04:40:24.091Z,2.00
2022-10-25T04:41:27.792Z,1.99
2022-10-25T04:42:36.579Z,1.97
2022-10-25T04:43:51.169Z,2.05
2022-10-25T04:44:53.988Z,2.02
2022-10-25T04:46:01.610Z,1.98
2022-10-25T04:47:04.063Z,1.86
2022-10-25T04:48:06.656Z,1.94
2022-10-25T04:49:14.293Z,1.94
2022-10-25T04:50:17.938Z,2.04
2022-10-25T04:51:22.593Z,2.05
2022-10-25T04:52:32.022Z,2.09
2022-10-25T04:53:35.484Z,2.13
2022-10-25T04:54:38.079Z,2.13
2022-10-25T04:55:40.604Z,2.15
2022-10-25T04:56:45.075Z,2.10
2022-10-25T04:57:47.295Z,2.03
2022-10-25T04:58:50.595Z,2.13
2022-10-25T04:59:54.397Z,2.15
2022-10-25T05:01:03.328Z,2.24
2022-10-25T05:02:05.813Z,2.18
2022-10-25T05:03:10.898Z,2.27
2022-10-25T05:04:15.596Z,2.24
2022-10-25T05:05:18.903Z,2.18
2022-10-25T05:06:24.820Z,2.23
2022-10-25T05:07:27.009Z,2.32
2022-10-25T05:08:29.688Z,2.30
2022-10-25T05:09:31.934Z,2.26
2022-10-25T05:10:34.477Z,2.32
2022-10-25T05:12:39.296Z,2.38
2022-10-25T05:13:43.243Z,2.41
2022-10-25T05:14:46.067Z,2.44
2022-10-25T05:15:58.811Z,2.41
2022-10-25T05:17:02.512Z,2.42
2022-10-25T05:18:04.979Z,2.52
2022-10-25T05:19:07.435Z,2.45
2022-10-25T05:20:10.059Z,2.48
2022-10-25T05:21:12.747Z,2.55
2022-10-25T05:22:14.844Z,2.59
2022-10-25T05:23:17.663Z,2.70
2022-10-25T05:24:20.926Z,2.71
2022-10-25T05:25:22.871Z,2.75
2022-10-25T05:26:24.987Z,2.79
2022-10-25T05:27:26.984Z,2.84
2022-10-25T05:28:29.226Z,2.87
2022-10-25T05:29:34.756Z,2.87
2022-10-25T05:30:43.759Z,2.92
2022-10-25T05:31:51.816Z,2.91
2022-10-25T05:33:00.467Z,2.78
2022-10-25T05:34:05.784Z,2.80
2022-10-25T05:35:09.912Z,2.80
2022-10-25T05:36:16.181Z,2.81
2022-10-25T05:38:02.366Z,2.80
2022-10-25T05:39:05.146Z,2.88
2022-10-25T05:40:07.926Z,2.95
2022-10-25T05:41:12.038Z,2.94
2022-10-25T05:42:16.204Z,2.97
2022-10-25T05:43:19.833Z,2.96
2022-10-25T05:44:23.076Z,3.00
2022-10-25T05:45:35.495Z,3.00
2022-10-25T05:46:53.288Z,3.09
2022-10-25T05:48:04.440Z,3.12
2022-10-25T05:49:07.435Z,3.09
2022-10-25T05:50:14.819Z,3.20
2022-10-25T05:51:44.723Z,3.07
2022-10-25T05:52:49.661Z,3.16
2022-10-25T05:53:56.770Z,3.17
2022-10-25T05:55:00.198Z,3.17
2022-10-25T05:56:02.555Z,3.25
2022-10-25T05:57:13.885Z,3.25
2022-10-25T05:58:34.180Z,3.20
2022-10-25T05:59:42.720Z,3.31
2022-10-25T06:00:49.210Z,3.42
2022-10-25T06:01:53.378Z,3.46
2022-10-25T06:02:58.007Z,3.47
2022-10-25T06:04:02.642Z,3.53
2022-10-25T06:05:12.161Z,3.57
2022-10-25T06:06:19.336Z,3.58
2022-10-25T06:07:31.110Z,3.63
2022-10-25T06:08:48.646Z,3.68
2022-10-25T06:10:10.386Z,3.75
2022-10-25T06:11:29.517Z,3.69
2022-10-25T06:12:34.928Z,3.71
2022-10-25T06:13:43.626Z,3.78
2022-10-25T06:15:06.132Z,3.85
2022-10-25T06:16:23.647Z,3.74
2022-10-25T06:17:34.405Z,3.82
2022-10-25T06:18:52.744Z,3.88
2022-10-25T06:20:06.029Z,3.88
2022-10-25T06:21:16.274Z,3.86
2022-10-25T06:22:27.430Z,3.96
2022-10-25T06:23:46.874Z,3.98
2022-10-25T06:25:22.383Z,3.97
2022-10-25T06:26:32.882Z,4.07
2022-10-25T06:27:44.215Z,4.16
2022-10-25T06:29:23.749Z,4.13
2022-10-25T06:30:47.597Z,4.14
2022-10-25T06:31:59.236Z,4.18
2022-10-25T06:33:03.937Z,4.17
2022-10-25T06:34:22.698Z,4.24
2022-10-25T06:35:32.897Z,4.35
2022-10-25T06:36:39.344Z,4.34
2022-10-25T06:37:46.822Z,4.28
2022-10-25T06:39:05.131Z,4.31
2022-10-25T06:46:12.642Z,4.45
2022-10-25T06:50:20.989Z,4.58
2022-10-25T06:52:19.195Z,4.58
2022-10-25T06:54:06.565Z,4.57
2022-10-25T06:56:53.116Z,4.66
2022-10-25T06:58:02.422Z,4.68
2022-10-25T07:00:59.740Z,4.74
2022-10-25T07:02:07.868Z,4.70
2022-10-25T07:03:20.071Z,4.85
2022-10-25T07:05:32.573Z,5.37
2022-10-25T07:06:50.004Z,6.63
2022-10-25T07:13:18.492Z,10.87
2022-10-25T07:14:28.893Z,12.12
2022-10-25T07:15:36.459Z,13.07
2022-10-25T07:16:43.360Z,13.19
2022-10-25T07:17:49.536Z,13.26
2022-10-25T07:20:15.599Z,12.50
2022-10-25T07:21:33.769Z,12.87
2022-10-25T07:22:41.108Z,12.97
2022-10-25T07:23:45.963Z,13.51
2022-10-25T07:24:48.255Z,12.50
2022-10-25T07:25:52.888Z,12.82
2022-10-25T07:26:58.789Z,11.84
2022-10-25T07:28:02.477Z,12.37
2022-10-25T07:29:11.646Z,12.14
2022-10-25T07:30:15.700Z,12.54
2022-10-25T07:31:23.067Z,12.76
2022-10-25T07:32:26.181Z,13.06
2022-10-25T07:33:31.971Z,12.78
2022-10-25T07:34:39.013Z,13.40
2022-10-25T07:35:58.841Z,14.26
2022-10-25T07:37:12.312Z,14.88
2022-10-25T07:38:25.588Z,14.32
2022-10-25T07:39:37.715Z,14.48
2022-10-25T07:40:44.890Z,14.12
2022-10-25T07:41:52.221Z,14.80
2022-10-25T07:43:05.032Z,15.12
2022-10-25T07:44:24.897Z,14.73
2022-10-25T07:45:58.368Z,13.76
2022-10-25T07:47:13.192Z,13.48
2022-10-25T07:48:42.199Z,14.01
2022-10-25T07:49:57.713Z,14.70
2022-10-25T07:51:31.611Z,15.17
2022-10-25T07:52:34.522Z,14.90
2022-10-25T07:53:41.868Z,14.88
2022-10-25T07:54:52.820Z,15.13
2022-10-25T07:56:00.339Z,15.09
2022-10-25T07:57:10.818Z,15.15
2022-10-25T07:58:20.587Z,15.34
2022-10-25T08:00:17.849Z,15.39
2022-10-25T08:02:00.968Z,15.53
2022-10-25T08:03:39.992Z,13.00
2022-10-25T08:06:07.136Z,13.56
2022-10-25T08:07:11.930Z,13.62
2022-10-25T08:08:18.133Z,13.17
2022-10-25T08:09:44.717Z,13.08
2022-10-25T08:10:57.378Z,12.90
2022-10-25T08:13:11.164Z,13.58
2022-10-25T08:14:16.858Z,13.13
2022-10-25T08:15:20.990Z,14.03
2022-10-25T08:16:43.260Z,12.42
2022-10-25T08:18:23.599Z,12.19
2022-10-25T08:21:21.059Z,13.03
2022-10-25T08:22:29.291Z,12.95
2022-10-25T08:24:04.233Z,12.42
2022-10-25T08:25:13.524Z,12.65
2022-10-25T08:26:17.233Z,13.16
2022-10-25T08:27:21.890Z,12.71
2022-10-25T08:28:24.829Z,12.08
2022-10-25T08:29:27.531Z,12.27
2022-10-25T08:30:35.717Z,12.16
2022-10-25T08:31:49.526Z,11.45
2022-10-25T08:33:07.316Z,12.56
2022-10-25T08:34:14.689Z,11.73
2022-10-25T08:35:17.582Z,12.27
2022-10-25T08:36:20.497Z,12.37
2022-10-25T08:37:23.666Z,11.76
2022-10-25T08:38:29.646Z,11.51
2022-10-25T08:39:32.346Z,10.85
2022-10-25T08:41:02.171Z,10.73
2022-10-25T08:42:06.058Z,11.23
2022-10-25T08:43:46.004Z,11.29
2022-10-25T08:45:20.406Z,11.45
2022-10-25T08:46:50.004Z,12.09
2022-10-25T08:48:00.123Z,11.75
2022-10-25T08:49:28.487Z,11.23
2022-10-25T08:50:47.758Z,10.77
2022-10-25T08:51:54.283Z,11.21
2022-10-25T08:53:04.501Z,10.43
2022-10-25T08:55:14.013Z,10.64
2022-10-25T08:57:30.085Z,11.31
2022-10-25T08:58:41.636Z,11.33
2022-10-25T09:00:33.369Z,11.16
2022-10-25T09:04:54.394Z,11.13
2022-10-25T09:08:15.248Z,10.56
2022-10-25T09:09:27.387Z,10.13
2022-10-25T09:10:58.726Z,9.56
2022-10-25T09:12:09.028Z,10.21
2022-10-25T09:13:36.808Z,10.03
2022-10-25T09:14:53.791Z,9.62
2022-10-25T09:16:14.571Z,9.83
2022-10-25T09:18:46.955Z,9.61
2022-10-25T09:20:09.160Z,9.83
2022-10-25T09:21:22.423Z,9.61
2022-10-25T09:22:52.277Z,9.16
2022-10-25T09:24:06.490Z,8.93
2022-10-25T09:25:23.974Z,9.07
2022-10-25T09:26:47.320Z,9.08
2022-10-25T09:28:00.577Z,8.88
2022-10-25T09:29:07.757Z,8.78
2022-10-25T09:30:13.717Z,8.74
2022-10-25T09:31:26.347Z,8.86
2022-10-25T09:32:44.965Z,8.46
2022-10-25T09:33:50.762Z,8.73
2022-10-25T09:34:57.027Z,8.64
2022-10-25T09:36:04.535Z,8.66
2022-10-25T09:37:18.501Z,8.68
2022-10-25T09:38:40.706Z,8.49
2022-10-25T09:39:50.321Z,8.32
2022-10-25T09:41:31.485Z,8.26
2022-10-25T09:42:42.106Z,8.31
2022-10-25T09:44:21.777Z,8.39
2022-10-25T09:45:45.870Z,8.29
2022-10-25T09:46:55.808Z,8.20
2022-10-25T09:48:13.740Z,7.99
2022-10-25T09:51:17.147Z,8.01
2022-10-25T09:54:41.120Z,7.71
2022-10-25T09:56:00.781Z,7.61
2022-10-25T09:57:18.484Z,7.51
2022-10-25T09:58:42.011Z,7.56
2022-10-25T09:59:51.635Z,7.68
2022-10-25T10:01:00.212Z,7.62
2022-10-25T10:02:25.322Z,7.75
2022-10-25T10:03:37.285Z,7.55
2022-10-25T10:04:40.072Z,7.58
2022-10-25T10:05:49.322Z,7.42
2022-10-25T10:06:57.545Z,7.44
2022-10-25T10:07:59.635Z,7.46
2022-10-25T10:09:07.395Z,7.55
2022-10-25T10:10:14.745Z,7.32
2022-10-25T10:11:18.680Z,7.31
2022-10-25T10:12:39.553Z,7.23
2022-10-25T10:14:09.152Z,7.14
2022-10-25T10:15:36.323Z,7.18
2022-10-25T10:16:48.134Z,7.06
2022-10-25T10:18:35.130Z,7.13
2022-10-25T10:19:39.288Z,7.18
2022-10-25T10:21:02.949Z,7.23
2022-10-25T10:22:14.034Z,7.31
2022-10-25T10:56:52.486Z,6.35
2022-10-25T10:58:17.293Z,6.31
2022-10-25T10:59:53.022Z,6.35
2022-10-25T11:01:47.498Z,6.32
2022-10-25T11:02:53.996Z,6.31
2022-10-25T11:04:00.034Z,6.32
2022-10-25T11:05:29.581Z,6.33
2022-10-25T11:06:35.516Z,6.38
2022-10-25T11:07:43.520Z,6.31
2022-10-25T11:09:56.816Z,6.37
2022-10-25T11:11:36.167Z,6.49
2022-10-25T11:12:43.610Z,6.36
2022-10-25T11:14:32.168Z,6.36
2022-10-25T11:16:53.253Z,6.38
2022-10-25T11:30:49.896Z,6.55
2022-10-25T11:32:14.444Z,6.56
2022-10-25T11:33:41.744Z,6.61
2022-10-25T11:37:22.404Z,6.75
2022-10-25T11:41:52.350Z,6.91
2022-10-25T11:43:32.198Z,6.90
2022-10-25T11:45:12.589Z,6.85
2022-10-25T11:46:35.247Z,6.82
2022-10-25T11:48:16.168Z,6.86
2022-10-25T11:49:51.459Z,6.79
2022-10-25T11:51:40.944Z,6.81
2022-10-25T11:55:15.077Z,6.84
2022-10-25T11:56:54.053Z,6.85
2022-10-25T12:02:22.528Z,6.74
2022-10-25T12:04:17.213Z,6.90
2022-10-25T12:06:00.121Z,6.90
2022-10-25T12:07:34.624Z,6.95
2022-10-25T12:09:08.466Z,6.93
2022-10-25T12:10:35.221Z,6.99
2022-10-25T12:11:55.117Z,6.97
2022-10-25T12:13:04.326Z,6.97
2022-10-25T12:16:15.578Z,6.82
2022-10-25T12:17:39.695Z,6.72
2022-10-25T12:20:51.558Z,6.69
2022-10-25T12:22:08.025Z,6.69
2022-10-25T12:23:19.780Z,6.68
2022-10-25T12:26:54.196Z,6.59
2022-10-25T12:28:28.697Z,6.59
2022-10-25T12:29:41.063Z,6.56
2022-10-25T12:30:45.592Z,6.56
2022-10-25T12:32:02.386Z,6.52
2022-10-25T12:33:16.882Z,6.55
2022-10-25T12:34:42.376Z,6.59
2022-10-25T12:35:54.580Z,6.67
2022-10-25T12:37:10.897Z,6.59
2022-10-25T12:38:37.073Z,6.67
2022-10-25T12:39:43.313Z,6.69
2022-10-25T12:42:51.521Z,6.72
2022-10-25T12:44:22.093Z,6.69
2022-10-25T12:45:47.667Z,6.67
2022-10-25T12:47:16.013Z,6.75
2022-10-25T12:49:03.465Z,6.77
2022-10-25T12:50:37.181Z,6.78
2022-10-25T12:52:34.617Z,6.76
2022-10-25T12:54:13.319Z,6.73
2022-10-25T12:55:21.624Z,6.70
2022-10-25T12:56:43.328Z,6.75
2022-10-25T12:58:23.266Z,6.79
2022-10-25T12:59:33.564Z,6.79
2022-10-25T13:01:22.851Z,6.67
2022-10-25T13:03:04.325Z,6.68
2022-10-25T13:04:31.342Z,6.71
2022-10-25T13:05:59.019Z,6.70
2022-10-25T13:07:05.988Z,6.74
2022-10-25T13:08:18.467Z,6.72
2022-10-25T13:09:33.469Z,6.68
2022-10-25T13:10:47.851Z,6.58
2022-10-25T13:16:19.585Z,6.40
2022-10-25T13:17:25.339Z,6.45
2022-10-25T13:18:44.809Z,6.39
2022-10-25T13:19:55.037Z,6.32
2022-10-25T13:21:05.157Z,6.21
2022-10-25T13:22:35.820Z,6.24
2022-10-25T13:23:47.326Z,6.12
2022-10-25T13:24:49.868Z,6.15
2022-10-25T13:25:55.230Z,6.17
2022-10-25T13:27:19.896Z,6.14
2022-10-25T13:28:36.041Z,6.08
2022-10-25T13:29:59.385Z,6.08
2022-10-25T13:31:33.539Z,6.04
2022-10-25T13:32:39.784Z,5.92
2022-10-25T13:33:42.199Z,6.03
2022-10-25T13:34:45.479Z,6.05
2022-10-25T13:36:00.335Z,5.83
2022-10-25T13:37:27.131Z,5.91
2022-10-25T13:38:38.045Z,5.84
2022-10-25T13:39:47.275Z,5.74
2022-10-25T13:41:15.041Z,5.73
2022-10-25T13:42:25.517Z,5.76
2022-10-25T13:43:56.156Z,5.76
2022-10-25T13:45:04.415Z,5.69
2022-10-25T13:46:12.075Z,5.73
2022-10-25T13:47:55.503Z,5.68
2022-10-25T13:48:59.988Z,5.71
2022-10-25T13:50:17.653Z,5.68
2022-10-25T13:51:26.389Z,5.60
2022-10-25T13:52:32.725Z,5.65
2022-10-25T13:53:48.605Z,5.63
2022-10-25T13:55:00.225Z,5.57
2022-10-25T13:56:07.395Z,5.58
2022-10-25T13:57:49.152Z,5.46
2022-10-25T13:58:55.850Z,5.54
2022-10-25T14:00:02.305Z,5.46
2022-10-25T14:01:27.316Z,5.49
2022-10-25T14:02:33.537Z,5.49
2022-10-25T14:04:03.355Z,5.43
2022-10-25T14:05:09.161Z,5.37
2022-10-25T14:06:38.688Z,5.41
2022-10-25T14:07:41.336Z,5.47
2022-10-25T14:09:12.153Z,5.41
2022-10-25T14:10:28.584Z,5.40
2022-10-25T14:11:52.769Z,5.36
2022-10-25T14:13:10.633Z,5.33
2022-10-25T14:14:27.889Z,5.28
2022-10-25T14:15:40.425Z,5.27
2022-10-25T14:17:15.060Z,5.23
2022-10-25T14:18:23.944Z,5.25
2022-10-25T14:19:51.514Z,5.14
2022-10-25T14:21:01.418Z,5.12
2022-10-25T14:22:29.049Z,5.17
2022-10-25T14:23:40.347Z,5.15
2022-10-25T14:24:54.414Z,5.20
2022-10-25T14:26:04.332Z,5.11
2022-10-25T14:27:36.581Z,4.97
2022-10-25T14:33:21.804Z,4.93
2022-10-25T14:34:29.196Z,4.92
2022-10-25T14:35:35.555Z,4.98
2022-10-25T14:36:38.116Z,4.93
2022-10-25T14:37:44.153Z,4.96
2022-10-25T14:39:01.970Z,4.92
2022-10-25T14:40:33.652Z,4.90
2022-10-25T14:41:57.411Z,4.86
2022-10-25T14:43:23.936Z,4.82
2022-10-25T14:44:47.028Z,4.80
2022-10-25T14:46:04.675Z,4.80
2022-10-25T14:47:30.731Z,4.84
2022-10-25T14:48:34.178Z,4.83
2022-10-25T14:49:37.889Z,4.81
2022-10-25T14:50:40.426Z,4.79
2022-10-25T14:51:45.320Z,4.78
2022-10-25T14:52:51.171Z,4.75
2022-10-25T14:54:04.331Z,4.73
2022-10-25T14:55:07.170Z,4.71
2022-10-25T14:56:09.575Z,4.72
2022-10-25T14:57:11.806Z,4.68
2022-10-25T14:58:16.417Z,4.67
2022-10-25T14:59:27.985Z,4.67
2022-10-25T15:00:30.668Z,4.70
2022-10-25T15:01:34.310Z,4.63
2022-10-25T15:02:42.819Z,4.70
2022-10-25T15:03:48.202Z,4.71
2022-10-25T15:04:58.702Z,4.72
2022-10-25T15:06:02.058Z,4.74
2022-10-25T15:07:10.178Z,4.66
2022-10-25T15:08:20.281Z,4.71
2022-10-25T15:09:42.737Z,4.74
2022-10-25T15:10:58.203Z,4.69
2022-10-25T15:12:12.017Z,4.65
2022-10-25T15:13:29.785Z,4.63
2022-10-25T15:14:32.631Z,4.61
2022-10-25T15:15:45.108Z,4.63
2022-10-25T15:16:50.094Z,4.62
2022-10-25T15:17:53.259Z,4.64
2022-10-25T15:19:18.350Z,4.59
2022-10-25T15:20:21.989Z,4.54
2022-10-25T15:21:38.885Z,4.52
2022-10-25T15:22:46.618Z,4.56
2022-10-25T15:24:13.778Z,4.55
2022-10-25T15:25:19.759Z,4.54
2022-10-25T15:26:27.887Z,4.46
2022-10-25T15:27:39.549Z,4.52
2022-10-25T15:28:49.284Z,4.54
2022-10-25T15:29:51.273Z,4.48
2022-10-25T15:31:07.489Z,4.42
2022-10-25T15:32:19.575Z,4.44
2022-10-25T15:33:30.429Z,4.38
2022-10-25T15:34:33.139Z,4.35
2022-10-25T15:35:52.038Z,4.34
2022-10-25T15:36:55.816Z,4.33
2022-10-25T15:37:57.867Z,4.36
2022-10-25T15:39:10.174Z,4.36
2022-10-25T15:40:17.171Z,4.34
2022-10-25T15:41:19.156Z,4.39
2022-10-25T15:42:24.105Z,4.38
2022-10-25T15:43:27.156Z,4.37
2022-10-25T15:44:31.504Z,4.41
2022-10-25T15:45:34.057Z,4.38
2022-10-25T15:46:38.353Z,4.41
2022-10-25T15:47:47.448Z,4.39
2022-10-25T15:48:50.099Z,4.31
2022-10-25T15:49:53.557Z,4.33
2022-10-25T15:50:58.138Z,4.30
2022-10-25T15:52:00.221Z,4.24
2022-10-25T15:53:03.162Z,4.22
2022-10-25T15:54:14.748Z,4.23
2022-10-25T15:55:22.598Z,4.22
2022-10-25T15:56:27.943Z,4.23
2022-10-25T15:57:30.318Z,4.22
2022-10-25T15:58:32.446Z,4.22
2022-10-25T15:59:34.749Z,4.21
2022-10-25T16:00:37.040Z,4.17
2022-10-25T16:01:48.134Z,4.22
2022-10-25T16:02:51.387Z,4.25
2022-10-25T16:03:53.543Z,4.18
2022-10-25T16:04:55.787Z,4.17
2022-10-25T16:05:57.828Z,4.15
2022-10-25T16:07:00.254Z,4.17
2022-10-25T16:08:03.063Z,4.18
2022-10-25T16:09:07.604Z,4.11
2022-10-25T16:10:09.835Z,4.14
2022-10-25T16:11:19.333Z,4.09
2022-10-25T16:12:30.397Z,4.03
2022-10-25T16:13:38.075Z,4.10
2022-10-25T16:14:40.743Z,4.07
2022-10-25T16:15:43.193Z,3.99
2022-10-25T16:16:46.563Z,3.99
2022-10-25T16:17:48.586Z,3.99
2022-10-25T16:18:50.773Z,3.98
2022-10-25T16:19:53.904Z,3.98
2022-10-25T16:20:58.121Z,3.90
2022-10-25T16:22:00.457Z,3.89
2022-10-25T16:23:02.696Z,3.81
2022-10-25T16:24:04.848Z,3.77
2022-10-25T16:25:07.341Z,3.77
2022-10-25T16:26:22.754Z,3.80
2022-10-25T16:27:24.817Z,3.79
2022-10-25T16:28:27.026Z,3.72
2022-10-25T16:29:29.881Z,3.76
2022-10-25T16:30:36.511Z,3.77
2022-10-25T16:31:40.388Z,3.65
2022-10-25T16:32:43.694Z,3.61
2022-10-25T16:33:45.869Z,3.60
2022-10-25T16:34:50.285Z,3.61
2022-10-25T16:35:56.848Z,3.64
2022-10-25T16:36:59.038Z,3.58
2022-10-25T16:38:01.244Z,3.64
2022-10-25T16:39:04.878Z,3.61
2022-10-25T16:40:07.851Z,3.70
2022-10-25T16:41:25.064Z,3.57
2022-10-25T16:42:32.716Z,3.54
2022-10-25T16:43:34.936Z,3.52
2022-10-25T16:44:37.852Z,3.54
2022-10-25T16:45:40.691Z,3.49
2022-10-25T16:46:42.926Z,3.50
2022-10-25T16:47:47.174Z,3.47
2022-10-25T16:48:49.586Z,3.46
2022-10-25T16:49:53.353Z,3.44
2022-10-25T16:50:58.811Z,3.47
2022-10-25T16:52:01.383Z,3.47
2022-10-25T16:53:09.536Z,3.38
2022-10-25T16:54:12.945Z,3.35
2022-10-25T16:55:16.243Z,3.40
2022-10-25T16:56:20.673Z,3.32
2022-10-25T16:57:26.355Z,3.25
2022-10-25T16:58:29.141Z,3.27
2022-10-25T16:59:32.006Z,3.33
2022-10-25T17:00:36.221Z,3.28
2022-10-25T17:01:43.710Z,3.28
2022-10-25T17:02:49.969Z,3.32
2022-10-25T17:03:53.164Z,3.19
2022-10-25T17:04:55.430Z,3.23
2022-10-25T17:05:57.701Z,3.20
2022-10-25T17:07:04.644Z,3.24
2022-10-25T17:08:09.643Z,3.14
2022-10-25T17:09:11.871Z,3.17
2022-10-25T17:10:16.624Z,3.19
2022-10-25T17:11:20.054Z,3.17
2022-10-25T17:12:27.042Z,3.14
2022-10-25T17:13:30.996Z,3.19
2022-10-25T17:14:35.725Z,3.11
2022-10-25T17:15:39.315Z,3.13
2022-10-25T17:16:44.567Z,3.13
2022-10-25T17:17:48.422Z,3.14
2022-10-25T17:18:51.296Z,3.11
2022-10-25T17:19:53.963Z,3.10
2022-10-25T17:20:56.403Z,3.13
2022-10-25T17:22:02.391Z,3.06
2022-10-25T17:23:07.249Z,3.07
2022-10-25T17:24:11.121Z,3.01
2022-10-25T17:25:13.538Z,3.03
2022-10-25T17:26:17.127Z,3.06
2022-10-25T17:27:20.620Z,3.07
2022-10-25T17:28:24.250Z,3.02
2022-10-25T17:29:29.958Z,2.96
2022-10-25T17:30:41.471Z,2.94
2022-10-25T17:31:45.764Z,2.94
2022-10-25T17:32:48.707Z,2.82
2022-10-25T17:33:52.435Z,2.81
2022-10-25T17:34:58.008Z,2.88
2022-10-25T17:36:05.470Z,2.90
2022-10-25T17:37:08.021Z,2.81
2022-10-25T17:38:13.182Z,2.75
2022-10-25T17:39:17.008Z,2.86
2022-10-25T17:40:20.365Z,2.74
2022-10-25T17:41:22.467Z,2.76
2022-10-25T17:42:24.943Z,2.73
2022-10-25T17:43:28.139Z,2.79
2022-10-25T17:44:30.740Z,2.75
2022-10-25T17:45:34.772Z,2.67
2022-10-25T17:46:39.140Z,2.61
2022-10-25T17:47:44.580Z,2.63
2022-10-25T17:48:57.396Z,2.67
2022-10-25T17:50:05.776Z,2.63
2022-10-25T17:51:14.026Z,2.65
2022-10-25T17:52:21.596Z,2.66
2022-10-25T17:53:23.863Z,2.66
2022-10-25T17:54:26.043Z,2.61
2022-10-25T17:55:33.181Z,2.63
2022-10-25T17:56:36.677Z,2.63
2022-10-25T17:57:39.569Z,2.63
2022-10-25T17:58:46.596Z,2.57
2022-10-25T17:59:49.031Z,2.59
2022-10-25T18:00:51.424Z,2.64
2022-10-25T18:01:54.013Z,2.61
2022-10-25T18:03:00.209Z,2.50
2022-10-25T18:04:09.478Z,2.58
2022-10-25T18:05:20.110Z,2.56
2022-10-25T18:06:27.050Z,2.58
2022-10-25T18:07:34.098Z,2.57
2022-10-25T18:09:30.323Z,2.58
2022-10-25T18:10:36.992Z,2.55
2022-10-25T18:11:56.463Z,2.54
2022-10-25T18:13:03.987Z,2.51
2022-10-25T18:14:08.847Z,2.50
2022-10-25T18:15:19.859Z,2.49
2022-10-25T18:16:41.543Z,2.52
2022-10-25T18:17:50.584Z,2.49
2022-10-25T18:19:07.076Z,2.43
2022-10-25T18:20:18.710Z,2.47
2022-10-25T18:22:58.699Z,2.53
2022-10-25T18:24:19.303Z,2.57
2022-10-25T18:25:24.021Z,2.52
2022-10-25T18:27:05.317Z,2.47
2022-10-25T18:28:53.294Z,2.42
2022-10-25T18:31:20.567Z,2.43
2022-10-25T18:32:42.806Z,2.41
2022-10-25T18:34:12.876Z,2.41
2022-10-25T18:38:49.193Z,2.47
2022-10-25T19:07:31.700Z,2.14
2022-10-25T19:08:46.106Z,2.15
2022-10-25T19:09:59.372Z,2.13
2022-10-25T19:12:41.579Z,2.10
2022-10-25T19:13:59.674Z,2.10
2022-10-25T19:15:15.843Z,2.00
2022-10-25T19:16:47.174Z,2.02
2022-10-25T19:18:13.979Z,1.99
2022-10-25T19:32:30.437Z,1.82
2022-10-25T19:36:45.696Z,1.84
2022-10-25T19:37:50.775Z,1.85
2022-10-25T19:42:58.320Z,1.85
2022-10-25T19:44:34.121Z,1.74
2022-10-25T19:47:28.069Z,1.72
2022-10-25T19:48:34.162Z,1.68
2022-10-25T19:49:38.304Z,1.76
2022-10-25T19:50:41.967Z,1.61
2022-10-25T19:51:50.696Z,1.67
2022-10-25T19:52:57.278Z,1.70
2022-10-25T19:54:14.805Z,1.70
2022-10-25T19:55:24.585Z,1.71
2022-10-25T19:56:28.403Z,1.74
2022-10-25T19:57:33.308Z,1.71
2022-10-25T19:58:37.739Z,1.70
2022-10-25T19:59:43.669Z,1.64
2022-10-25T20:00:47.629Z,1.67
2022-10-25T20:01:50.247Z,1.69
2022-10-25T20:02:53.693Z,1.65
2022-10-25T20:04:00.856Z,1.63
2022-10-25T20:05:03.320Z,1.60
2022-10-25T20:06:24.676Z,1.63
2022-10-25T20:07:33.559Z,1.55
2022-10-25T20:08:39.741Z,1.62
2022-10-25T20:09:44.270Z,1.64
2022-10-25T20:11:07.874Z,1.71
2022-10-25T20:13:06.051Z,1.52
2022-10-25T20:14:11.506Z,1.52
2022-10-25T20:19:42.085Z,1.47
2022-10-25T20:20:51.708Z,1.45
2022-10-25T20:21:58.701Z,1.48
2022-10-25T20:23:00.749Z,1.47
2022-10-25T20:24:09.431Z,1.50
2022-10-25T20:26:21.263Z,1.38
2022-10-25T20:27:23.959Z,1.39
2022-10-25T20:28:37.761Z,1.45
2022-10-25T20:29:43.473Z,1.39
2022-10-25T20:30:46.049Z,1.42
2022-10-25T20:31:49.702Z,1.44
2022-10-25T20:32:56.360Z,1.54
2022-10-25T20:34:01.790Z,1.45
2022-10-25T20:35:05.568Z,1.43
2022-10-25T20:36:11.707Z,1.35
2022-10-25T20:37:14.591Z,1.39
2022-10-25T20:38:16.963Z,1.33
2022-10-25T20:39:20.525Z,1.42
2022-10-25T20:40:22.833Z,1.38
2022-10-25T20:41:29.913Z,1.37
2022-10-25T20:42:33.962Z,1.35
2022-10-25T20:43:39.112Z,1.32
2022-10-25T20:44:43.111Z,1.39
2022-10-25T20:45:48.413Z,1.39
2022-10-25T20:46:51.416Z,1.27
2022-10-25T20:47:57.007Z,1.34
2022-10-25T20:49:01.111Z,1.39
2022-10-25T20:50:05.532Z,1.39
2022-10-25T20:51:14.646Z,1.37
2022-10-25T20:52:17.949Z,1.45
2022-10-25T20:53:21.793Z,1.36
2022-10-25T20:54:25.315Z,1.36
2022-10-25T20:55:29.676Z,1.45
2022-10-25T20:56:33.888Z,1.42
2022-10-25T20:57:39.765Z,1.37
2022-10-25T20:58:42.291Z,1.38
2022-10-25T20:59:45.893Z,1.39
2022-10-25T21:00:49.407Z,1.29
2022-10-25T21:01:52.969Z,1.33
2022-10-25T21:02:57.259Z,1.36
2022-10-25T21:04:08.032Z,1.43
2022-10-25T21:05:13.000Z,1.20
2022-10-25T21:06:16.965Z,1.16
2022-10-25T21:07:19.500Z,1.16
2022-10-25T21:08:23.917Z,1.28
2022-10-25T21:09:29.404Z,1.32
2022-10-25T21:10:36.373Z,1.14
2022-10-25T21:11:38.490Z,1.19
2022-10-25T21:12:42.790Z,1.09
2022-10-25T21:13:46.576Z,1.01
2022-10-25T21:14:48.610Z,1.02
2022-10-25T21:15:51.464Z,1.07
2022-10-25T21:16:53.680Z,1.19
2022-10-25T21:17:56.532Z,1.24
2022-10-25T21:19:04.305Z,1.26
2022-10-25T21:20:08.502Z,1.31
2022-10-25T21:21:20.973Z,1.38
2022-10-25T21:22:23.510Z,1.26
2022-10-25T21:23:31.213Z,1.14
2022-10-25T21:25:40.738Z,1.09
2022-10-25T21:26:42.775Z,1.01
2022-10-25T21:27:45.679Z,0.98
2022-10-25T21:28:47.932Z,0.96
2022-10-25T21:29:50.892Z,1.04
2022-10-25T21:30:54.743Z,1.06
2022-10-25T21:31:56.706Z,1.12
2022-10-25T21:33:03.476Z,1.13
2022-10-25T21:34:07.746Z,1.21
2022-10-25T21:35:11.553Z,1.21
2022-10-25T21:36:15.690Z,1.22
2022-10-25T21:37:21.697Z,1.24
2022-10-25T21:38:26.951Z,1.18
2022-10-25T21:39:32.025Z,1.15
2022-10-25T21:40:35.403Z,1.17
2022-10-25T21:41:38.584Z,1.13
2022-10-25T21:42:49.245Z,1.14
2022-10-25T21:43:53.820Z,1.11
2022-10-25T21:44:57.340Z,1.17
2022-10-25T21:45:59.392Z,1.22
2022-10-25T21:47:02.790Z,1.25
2022-10-25T21:48:07.553Z,1.09
2022-10-25T21:49:09.592Z,1.00
2022-10-25T21:50:17.559Z,1.09
2022-10-25T21:51:26.690Z,1.13
2022-10-25T21:52:30.896Z,1.17
2022-10-25T21:53:33.138Z,1.10
2022-10-25T21:54:35.412Z,1.21
2022-10-25T21:55:37.377Z,1.18
2022-10-25T21:56:40.715Z,1.14
2022-10-25T21:57:42.638Z,1.14
2022-10-25T21:58:46.798Z,1.20
2022-10-25T21:59:48.833Z,1.23
2022-10-25T22:00:50.951Z,1.17
2022-10-25T22:01:53.197Z,1.19
2022-10-25T22:02:59.703Z,1.12
2022-10-25T22:04:03.157Z,1.02
2022-10-25T22:05:05.578Z,0.95
2022-10-25T22:06:17.693Z,0.95
2022-10-25T22:07:20.731Z,0.99
2022-10-25T22:08:26.986Z,1.18
2022-10-25T22:09:33.349Z,1.16
2022-10-25T22:10:39.309Z,1.15
2022-10-25T22:11:48.855Z,1.24
2022-10-25T22:13:45.110Z,1.26
2022-10-25T22:14:59.424Z,1.18
2022-10-25T22:16:07.133Z,1.22
2022-10-25T22:17:09.359Z,1.29
2022-10-25T22:18:11.651Z,1.17
2022-10-25T22:19:19.202Z,1.30
2022-10-25T22:20:24.583Z,1.39
2022-10-25T22:21:28.765Z,1.33
2022-10-25T22:22:33.537Z,1.36
2022-10-25T22:23:36.513Z,1.14
2022-10-25T22:24:42.289Z,1.25
2022-10-25T22:25:51.763Z,1.36
2022-10-25T22:26:55.621Z,1.28
2022-10-25T22:27:59.641Z,1.32
2022-10-25T22:29:12.345Z,1.44
2022-10-25T22:30:28.132Z,1.29
2022-10-25T22:31:34.724Z,1.42
2022-10-25T22:32:42.129Z,1.48
2022-10-25T22:33:54.237Z,1.63
2022-10-25T22:35:00.538Z,1.58
2022-10-25T22:36:23.323Z,1.61
2022-10-25T22:37:33.846Z,1.65
2022-10-25T22:38:37.921Z,1.63
2022-10-25T22:39:41.126Z,1.51
2022-10-25T22:40:47.288Z,1.50
2022-10-25T22:41:56.432Z,1.55
2022-10-25T22:43:00.907Z,1.62
2022-10-25T22:44:07.071Z,1.61
2022-10-25T22:45:16.890Z,1.68
2022-10-25T22:46:42.119Z,1.68
2022-10-25T22:47:47.772Z,1.64
2022-10-25T22:48:52.035Z,1.65
2022-10-25T22:49:55.933Z,1.69
2022-10-25T22:51:05.033Z,1.69
2022-10-25T22:52:14.977Z,1.74
2022-10-25T22:53:34.324Z,1.69
2022-10-25T22:54:38.109Z,1.61